TAY4999 EBLG-LFPG
Flight info
| Callsign | TAY4999 |
|---|---|
| Flight time | 0h 40m |
| Altitude | 23000 |
| Route | CIV UY50 DELOM DCT MOPIL |
| Aircraft | B738/M-SDE2E3FGHIRWXY/LB1 |
Departure
| Time | 2026-05-05 10:58 |
|---|---|
| Airport | Liège Airport (EBLG) |
Arrival
| Time | 2026-05-05 11:39 |
|---|---|
| Airport | Charles de Gaulle International Airport (LFPG) |
| Time | Latitude | Longitude | Altitude | Speed | Heading |
|---|---|---|---|---|---|
| 2026-05-05 10:23 | 50.63635 | 5.44837 | 615 ft | 0 kts | 134° |
| 2026-05-05 10:23 | 50.63636 | 5.44837 | 615 ft | 0 kts | 134° |
| 2026-05-05 10:24 | 50.63635 | 5.44837 | 615 ft | 0 kts | 134° |
| 2026-05-05 10:24 | 50.63636 | 5.44837 | 615 ft | 0 kts | 134° |
| 2026-05-05 10:25 | 50.63635 | 5.44837 | 615 ft | 0 kts | 134° |
| 2026-05-05 10:27 | 50.63636 | 5.44837 | 615 ft | 0 kts | 134° |
| 2026-05-05 10:49 | 50.63641 | 5.44828 | 615 ft | 4 kts | 134° |
| 2026-05-05 10:50 | 50.63661 | 5.44798 | 619 ft | 4 kts | 137° |
| 2026-05-05 10:50 | 50.63681 | 5.44771 | 627 ft | 4 kts | 149° |
| 2026-05-05 10:50 | 50.63703 | 5.44757 | 630 ft | 3 kts | 172° |
| 2026-05-05 10:50 | 50.63727 | 5.44759 | 623 ft | 4 kts | 207° |
| 2026-05-05 10:51 | 50.63748 | 5.44784 | 630 ft | 3 kts | 225° |
| 2026-05-05 10:51 | 50.63751 | 5.44789 | 630 ft | 1 kts | 224° |
| 2026-05-05 10:54 | 50.63745 | 5.44780 | 626 ft | 4 kts | 224° |
| 2026-05-05 10:55 | 50.63709 | 5.44724 | 620 ft | 10 kts | 225° |
| 2026-05-05 10:55 | 50.63655 | 5.44637 | 619 ft | 12 kts | 225° |
| 2026-05-05 10:55 | 50.63586 | 5.44529 | 622 ft | 16 kts | 225° |
| 2026-05-05 10:55 | 50.63507 | 5.44404 | 626 ft | 16 kts | 226° |
| 2026-05-05 10:56 | 50.63430 | 5.44283 | 629 ft | 15 kts | 225° |
| 2026-05-05 10:56 | 50.63356 | 5.44166 | 641 ft | 15 kts | 225° |
| 2026-05-05 10:56 | 50.63283 | 5.44049 | 638 ft | 17 kts | 225° |
| 2026-05-05 10:56 | 50.63200 | 5.43909 | 643 ft | 16 kts | 244° |
| 2026-05-05 10:57 | 50.63249 | 5.43833 | 639 ft | 12 kts | 10° |
| 2026-05-05 10:57 | 50.63333 | 5.43876 | 639 ft | 14 kts | 16° |
| 2026-05-05 10:57 | 50.63436 | 5.43936 | 643 ft | 18 kts | 37° |
| 2026-05-05 10:57 | 50.63580 | 5.44158 | 626 ft | 62 kts | 45° |
| 2026-05-05 10:58 | 50.64112 | 5.44998 | 600 ft | 152 kts | 43° |
| 2026-05-05 10:58 | 50.64957 | 5.46330 | 1264 ft | 178 kts | 45° |
| 2026-05-05 10:58 | 50.65825 | 5.47726 | 2548 ft | 175 kts | 45° |
| 2026-05-05 10:58 | 50.66746 | 5.49182 | 3434 ft | 202 kts | 46° |
| 2026-05-05 10:59 | 50.67796 | 5.50850 | 3861 ft | 224 kts | 46° |
| 2026-05-05 10:59 | 50.68916 | 5.52627 | 4579 ft | 233 kts | 47° |
| 2026-05-05 10:59 | 50.70043 | 5.54418 | 5465 ft | 233 kts | 46° |
| 2026-05-05 10:59 | 50.71213 | 5.56230 | 6312 ft | 239 kts | 40° |
| 2026-05-05 11:00 | 50.72753 | 5.57277 | 7125 ft | 244 kts | 7° |
| 2026-05-05 11:00 | 50.74417 | 5.56863 | 7963 ft | 248 kts | 334° |
| 2026-05-05 11:00 | 50.75695 | 5.55053 | 8743 ft | 254 kts | 300° |
| 2026-05-05 11:00 | 50.76293 | 5.52425 | 9554 ft | 257 kts | 286° |
| 2026-05-05 11:01 | 50.76755 | 5.49655 | 10281 ft | 262 kts | 285° |
| 2026-05-05 11:01 | 50.77221 | 5.46872 | 11037 ft | 264 kts | 285° |
| 2026-05-05 11:01 | 50.77699 | 5.44039 | 11761 ft | 269 kts | 282° |
| 2026-05-05 11:01 | 50.77658 | 5.41061 | 12103 ft | 289 kts | 251° |
| 2026-05-05 11:02 | 50.76767 | 5.38059 | 12363 ft | 311 kts | 240° |
| 2026-05-05 11:02 | 50.75658 | 5.34989 | 12542 ft | 336 kts | 239° |
| 2026-05-05 11:02 | 50.74455 | 5.31726 | 12708 ft | 359 kts | 239° |
| 2026-05-05 11:02 | 50.73165 | 5.28183 | 12934 ft | 378 kts | 239° |
| 2026-05-05 11:03 | 50.71855 | 5.24513 | 13430 ft | 389 kts | 240° |
| 2026-05-05 11:03 | 50.70536 | 5.20759 | 13963 ft | 396 kts | 240° |
| 2026-05-05 11:03 | 50.69206 | 5.16925 | 14690 ft | 397 kts | 240° |
| 2026-05-05 11:03 | 50.67897 | 5.13128 | 15361 ft | 400 kts | 240° |
| 2026-05-05 11:04 | 50.66559 | 5.09235 | 16041 ft | 401 kts | 240° |
| 2026-05-05 11:04 | 50.65218 | 5.05331 | 16685 ft | 404 kts | 240° |
| 2026-05-05 11:04 | 50.63881 | 5.01442 | 17301 ft | 407 kts | 240° |
| 2026-05-05 11:04 | 50.62549 | 4.97573 | 17908 ft | 410 kts | 240° |
| 2026-05-05 11:05 | 50.61193 | 4.93644 | 18448 ft | 413 kts | 239° |
| 2026-05-05 11:05 | 50.59805 | 4.89629 | 18983 ft | 415 kts | 240° |
| 2026-05-05 11:05 | 50.58435 | 4.85671 | 19503 ft | 417 kts | 239° |
| 2026-05-05 11:05 | 50.57031 | 4.81624 | 20054 ft | 420 kts | 239° |
| 2026-05-05 11:06 | 50.55621 | 4.77562 | 20553 ft | 422 kts | 239° |
| 2026-05-05 11:06 | 50.54212 | 4.73510 | 21067 ft | 424 kts | 239° |
| 2026-05-05 11:06 | 50.52795 | 4.69443 | 21563 ft | 427 kts | 239° |
| 2026-05-05 11:06 | 50.51374 | 4.65368 | 22042 ft | 429 kts | 239° |
| 2026-05-05 11:07 | 50.49905 | 4.61166 | 22539 ft | 431 kts | 239° |
| 2026-05-05 11:07 | 50.48437 | 4.56971 | 22906 ft | 435 kts | 239° |
| 2026-05-05 11:07 | 50.46948 | 4.52727 | 22912 ft | 445 kts | 239° |
| 2026-05-05 11:07 | 50.45451 | 4.48468 | 22922 ft | 451 kts | 239° |
| 2026-05-05 11:08 | 50.43939 | 4.44168 | 22921 ft | 453 kts | 239° |
| 2026-05-05 11:08 | 50.42425 | 4.39865 | 22908 ft | 450 kts | 239° |
| 2026-05-05 11:08 | 50.40905 | 4.35555 | 22907 ft | 448 kts | 239° |
| 2026-05-05 11:08 | 50.39395 | 4.31280 | 22908 ft | 447 kts | 239° |
| 2026-05-05 11:09 | 50.37893 | 4.27033 | 22910 ft | 447 kts | 239° |
| 2026-05-05 11:09 | 50.36375 | 4.22748 | 22907 ft | 447 kts | 239° |
| 2026-05-05 11:09 | 50.34860 | 4.18489 | 22907 ft | 447 kts | 239° |
| 2026-05-05 11:09 | 50.33058 | 4.14527 | 22899 ft | 445 kts | 223° |
| 2026-05-05 11:10 | 50.30611 | 4.11703 | 22908 ft | 441 kts | 206° |
| 2026-05-05 11:10 | 50.27735 | 4.10003 | 22905 ft | 440 kts | 192° |
| 2026-05-05 11:10 | 50.24714 | 4.09526 | 22900 ft | 440 kts | 177° |
| 2026-05-05 11:10 | 50.21640 | 4.09907 | 22897 ft | 440 kts | 174° |
| 2026-05-05 11:11 | 50.18573 | 4.10341 | 22879 ft | 440 kts | 175° |
| 2026-05-05 11:11 | 50.15551 | 4.10711 | 22882 ft | 441 kts | 175° |
| 2026-05-05 11:11 | 50.12656 | 4.10871 | 22881 ft | 441 kts | 180° |
| 2026-05-05 11:11 | 50.09589 | 4.10713 | 22888 ft | 441 kts | 182° |
| 2026-05-05 11:12 | 50.06508 | 4.10415 | 22888 ft | 441 kts | 183° |
| 2026-05-05 11:12 | 50.03413 | 4.10089 | 22889 ft | 441 kts | 183° |
| 2026-05-05 11:12 | 50.00348 | 4.09786 | 22874 ft | 442 kts | 182° |
| 2026-05-05 11:12 | 49.97228 | 4.09509 | 22880 ft | 442 kts | 182° |
| 2026-05-05 11:13 | 49.94189 | 4.09264 | 22879 ft | 441 kts | 182° |
| 2026-05-05 11:13 | 49.91109 | 4.09031 | 22870 ft | 441 kts | 182° |
| 2026-05-05 11:13 | 49.88056 | 4.08807 | 22868 ft | 441 kts | 182° |
| 2026-05-05 11:13 | 49.84985 | 4.08583 | 22872 ft | 440 kts | 182° |
| 2026-05-05 11:14 | 49.81937 | 4.08361 | 22870 ft | 441 kts | 182° |
| 2026-05-05 11:14 | 49.78873 | 4.08136 | 22868 ft | 441 kts | 182° |
| 2026-05-05 11:14 | 49.75775 | 4.07908 | 22852 ft | 433 kts | 182° |
| 2026-05-05 11:14 | 49.72879 | 4.07693 | 22850 ft | 414 kts | 182° |
| 2026-05-05 11:15 | 49.70000 | 4.07480 | 22875 ft | 409 kts | 182° |
| 2026-05-05 11:15 | 49.68112 | 4.07342 | 22854 ft | 406 kts | 182° |
| 2026-05-05 11:15 | 49.64304 | 4.07063 | 22702 ft | 408 kts | 183° |
| 2026-05-05 11:15 | 49.61563 | 4.06192 | 22233 ft | 406 kts | 200° |
| 2026-05-05 11:16 | 49.59137 | 4.04085 | 21743 ft | 403 kts | 216° |
| 2026-05-05 11:16 | 49.57723 | 4.02092 | 21363 ft | 403 kts | 227° |
| 2026-05-05 11:16 | 49.56129 | 3.98633 | 20862 ft | 400 kts | 235° |
| 2026-05-05 11:16 | 49.54627 | 3.94968 | 20323 ft | 398 kts | 236° |
| 2026-05-05 11:17 | 49.53161 | 3.91365 | 19790 ft | 396 kts | 236° |
| 2026-05-05 11:17 | 49.51704 | 3.87833 | 19266 ft | 393 kts | 235° |
| 2026-05-05 11:17 | 49.50222 | 3.84298 | 18741 ft | 391 kts | 234° |
| 2026-05-05 11:17 | 49.48758 | 3.80839 | 18234 ft | 389 kts | 234° |
| 2026-05-05 11:18 | 49.47368 | 3.77260 | 17633 ft | 390 kts | 244° |
| 2026-05-05 11:18 | 49.46614 | 3.73267 | 17107 ft | 389 kts | 255° |
| 2026-05-05 11:18 | 49.45999 | 3.69217 | 16568 ft | 387 kts | 254° |
| 2026-05-05 11:18 | 49.45337 | 3.65130 | 16034 ft | 384 kts | 254° |
| 2026-05-05 11:19 | 49.44668 | 3.61150 | 15709 ft | 377 kts | 253° |
| 2026-05-05 11:19 | 49.44021 | 3.57346 | 15507 ft | 371 kts | 253° |
| 2026-05-05 11:19 | 49.43360 | 3.53477 | 15312 ft | 378 kts | 253° |
| 2026-05-05 11:19 | 49.42685 | 3.49523 | 15099 ft | 383 kts | 254° |
| 2026-05-05 11:20 | 49.42002 | 3.45541 | 14875 ft | 383 kts | 253° |
| 2026-05-05 11:20 | 49.41181 | 3.41712 | 14697 ft | 379 kts | 248° |
| 2026-05-05 11:20 | 49.40183 | 3.37925 | 14521 ft | 376 kts | 245° |
| 2026-05-05 11:20 | 49.39164 | 3.34287 | 14363 ft | 375 kts | 245° |
| 2026-05-05 11:21 | 49.38125 | 3.30600 | 14204 ft | 375 kts | 245° |
| 2026-05-05 11:21 | 49.37083 | 3.26861 | 14028 ft | 375 kts | 246° |
| 2026-05-05 11:21 | 49.36052 | 3.23118 | 13890 ft | 376 kts | 246° |
| 2026-05-05 11:21 | 49.35042 | 3.19417 | 13695 ft | 380 kts | 246° |
| 2026-05-05 11:22 | 49.34041 | 3.15729 | 13488 ft | 380 kts | 246° |
| 2026-05-05 11:22 | 49.33028 | 3.11984 | 13324 ft | 379 kts | 246° |
| 2026-05-05 11:22 | 49.32029 | 3.08291 | 13156 ft | 377 kts | 246° |
| 2026-05-05 11:22 | 49.31024 | 3.04581 | 12980 ft | 376 kts | 246° |
| 2026-05-05 11:23 | 49.30012 | 3.00847 | 12811 ft | 375 kts | 246° |
| 2026-05-05 11:23 | 49.29026 | 2.97218 | 12642 ft | 375 kts | 246° |
| 2026-05-05 11:23 | 49.28015 | 2.93502 | 12486 ft | 374 kts | 246° |
| 2026-05-05 11:23 | 49.27011 | 2.89815 | 12326 ft | 373 kts | 246° |
| 2026-05-05 11:24 | 49.26010 | 2.86147 | 12150 ft | 373 kts | 246° |
| 2026-05-05 11:24 | 49.25346 | 2.83718 | 12046 ft | 372 kts | 246° |
| 2026-05-05 11:24 | 49.24787 | 2.81674 | 11950 ft | 372 kts | 246° |
| 2026-05-05 11:24 | 49.23759 | 2.77918 | 11778 ft | 371 kts | 246° |
| 2026-05-05 11:25 | 49.22760 | 2.74273 | 11630 ft | 371 kts | 246° |
| 2026-05-05 11:25 | 49.21756 | 2.70615 | 11444 ft | 371 kts | 246° |
| 2026-05-05 11:25 | 49.20756 | 2.66976 | 11279 ft | 369 kts | 246° |
| 2026-05-05 11:25 | 49.19782 | 2.63439 | 11104 ft | 359 kts | 246° |
| 2026-05-05 11:26 | 49.18822 | 2.59964 | 10944 ft | 348 kts | 246° |
| 2026-05-05 11:26 | 49.18052 | 2.56508 | 10723 ft | 340 kts | 261° |
| 2026-05-05 11:26 | 49.17920 | 2.52977 | 10440 ft | 334 kts | 269° |
| 2026-05-05 11:26 | 49.17889 | 2.49428 | 10129 ft | 331 kts | 269° |
| 2026-05-05 11:27 | 49.17844 | 2.45909 | 9823 ft | 328 kts | 269° |
| 2026-05-05 11:27 | 49.17780 | 2.42479 | 9800 ft | 315 kts | 268° |
| 2026-05-05 11:27 | 49.17709 | 2.39187 | 9766 ft | 302 kts | 268° |
| 2026-05-05 11:27 | 49.17624 | 2.36044 | 9561 ft | 291 kts | 266° |
| 2026-05-05 11:28 | 49.17440 | 2.32974 | 9126 ft | 289 kts | 264° |
| 2026-05-05 11:28 | 49.17227 | 2.29951 | 8707 ft | 289 kts | 264° |
| 2026-05-05 11:28 | 49.17021 | 2.26970 | 8627 ft | 272 kts | 264° |
| 2026-05-05 11:28 | 49.16834 | 2.24183 | 8532 ft | 255 kts | 264° |
| 2026-05-05 11:29 | 49.16659 | 2.21542 | 8424 ft | 245 kts | 264° |
| 2026-05-05 11:29 | 49.16492 | 2.19017 | 8277 ft | 232 kts | 265° |
| 2026-05-05 11:29 | 49.16332 | 2.16601 | 8036 ft | 222 kts | 265° |
| 2026-05-05 11:29 | 49.15958 | 2.14445 | 7876 ft | 207 kts | 236° |
| 2026-05-05 11:30 | 49.14926 | 2.13009 | 7504 ft | 200 kts | 200° |
| 2026-05-05 11:30 | 49.13604 | 2.12537 | 7117 ft | 193 kts | 174° |
| 2026-05-05 11:30 | 49.12253 | 2.12869 | 6758 ft | 189 kts | 161° |
| 2026-05-05 11:30 | 49.11022 | 2.13357 | 6418 ft | 189 kts | 160° |
| 2026-05-05 11:31 | 49.09756 | 2.13872 | 6134 ft | 188 kts | 160° |
| 2026-05-05 11:31 | 49.08496 | 2.14379 | 5895 ft | 185 kts | 160° |
| 2026-05-05 11:31 | 49.07256 | 2.14874 | 5679 ft | 183 kts | 160° |
| 2026-05-05 11:31 | 49.06012 | 2.15369 | 5471 ft | 184 kts | 160° |
| 2026-05-05 11:32 | 49.04787 | 2.15855 | 5285 ft | 184 kts | 160° |
| 2026-05-05 11:32 | 49.03547 | 2.16346 | 5080 ft | 184 kts | 160° |
| 2026-05-05 11:32 | 49.02303 | 2.16837 | 4889 ft | 183 kts | 161° |
| 2026-05-05 11:32 | 49.01175 | 2.17627 | 4691 ft | 173 kts | 125° |
| 2026-05-05 11:33 | 49.00851 | 2.19229 | 4691 ft | 161 kts | 85° |
| 2026-05-05 11:33 | 49.00924 | 2.20918 | 4498 ft | 160 kts | 85° |
| 2026-05-05 11:33 | 49.00978 | 2.22593 | 4275 ft | 157 kts | 85° |
| 2026-05-05 11:33 | 49.01032 | 2.23901 | 4110 ft | 154 kts | 84° |
| 2026-05-05 11:34 | 49.01106 | 2.25519 | 3915 ft | 153 kts | 84° |
| 2026-05-05 11:34 | 49.01186 | 2.27145 | 3705 ft | 155 kts | 83° |
| 2026-05-05 11:34 | 49.01268 | 2.28775 | 3504 ft | 154 kts | 83° |
| 2026-05-05 11:34 | 49.01347 | 2.30397 | 3304 ft | 154 kts | 82° |
| 2026-05-05 11:35 | 49.01429 | 2.32024 | 3081 ft | 153 kts | 81° |
| 2026-05-05 11:35 | 49.01508 | 2.33649 | 2894 ft | 154 kts | 82° |
| 2026-05-05 11:35 | 49.01592 | 2.35267 | 2735 ft | 151 kts | 81° |
| 2026-05-05 11:35 | 49.01676 | 2.36898 | 2499 ft | 157 kts | 80° |
| 2026-05-05 11:36 | 49.01760 | 2.38591 | 2227 ft | 159 kts | 81° |
| 2026-05-05 11:36 | 49.01843 | 2.40210 | 2013 ft | 147 kts | 81° |
| 2026-05-05 11:36 | 49.01919 | 2.41711 | 1830 ft | 140 kts | 82° |
| 2026-05-05 11:36 | 49.01992 | 2.43160 | 1656 ft | 136 kts | 80° |
| 2026-05-05 11:37 | 49.02069 | 2.44616 | 1486 ft | 140 kts | 82° |
| 2026-05-05 11:37 | 49.02146 | 2.46112 | 1265 ft | 140 kts | 82° |
| 2026-05-05 11:37 | 49.02221 | 2.47570 | 1065 ft | 139 kts | 80° |
| 2026-05-05 11:37 | 49.02298 | 2.49050 | 859 ft | 139 kts | 81° |
| 2026-05-05 11:38 | 49.02374 | 2.50527 | 703 ft | 142 kts | 82° |
| 2026-05-05 11:38 | 49.02444 | 2.52066 | 463 ft | 146 kts | 80° |
| 2026-05-05 11:38 | 49.02525 | 2.53544 | 363 ft | 128 kts | 79° |
| 2026-05-05 11:38 | 49.02595 | 2.54747 | 358 ft | 95 kts | 86° |
| 2026-05-05 11:39 | 49.02632 | 2.55449 | 356 ft | 42 kts | 85° |
| 2026-05-05 11:39 | 49.02628 | 2.55783 | 355 ft | 28 kts | 103° |
| 2026-05-05 11:39 | 49.02571 | 2.55910 | 354 ft | 14 kts | 143° |
| 2026-05-05 11:39 | 49.02481 | 2.55947 | 356 ft | 14 kts | 175° |
| 2026-05-05 11:40 | 49.02383 | 2.55959 | 354 ft | 15 kts | 176° |
| 2026-05-05 11:40 | 49.02271 | 2.55974 | 358 ft | 18 kts | 176° |
| 2026-05-05 11:40 | 49.02191 | 2.55983 | 355 ft | 12 kts | 174° |
| 2026-05-05 11:40 | 49.02110 | 2.55979 | 358 ft | 8 kts | 207° |
| 2026-05-05 11:41 | 49.02087 | 2.55931 | 356 ft | 7 kts | 257° |
| 2026-05-05 11:41 | 49.02080 | 2.55814 | 360 ft | 14 kts | 267° |
| 2026-05-05 11:41 | 49.02074 | 2.55710 | 362 ft | 16 kts | 265° |
| 2026-05-05 11:41 | 49.02065 | 2.55528 | 360 ft | 19 kts | 265° |
| 2026-05-05 11:42 | 49.02053 | 2.55318 | 354 ft | 21 kts | 265° |
| 2026-05-05 11:42 | 49.02040 | 2.55080 | 354 ft | 23 kts | 265° |
| 2026-05-05 11:42 | 49.02026 | 2.54821 | 359 ft | 25 kts | 265° |
| 2026-05-05 11:42 | 49.02012 | 2.54551 | 354 ft | 26 kts | 265° |
| 2026-05-05 11:43 | 49.02000 | 2.54303 | 360 ft | 20 kts | 266° |
| 2026-05-05 11:43 | 49.01958 | 2.54147 | 357 ft | 13 kts | 211° |
| 2026-05-05 11:43 | 49.01902 | 2.54068 | 359 ft | 8 kts | 250° |
| 2026-05-05 11:43 | 49.01893 | 2.53990 | 357 ft | 7 kts | 264° |
| 2026-05-05 11:44 | 49.01888 | 2.53904 | 362 ft | 10 kts | 264° |
| 2026-05-05 11:44 | 49.01880 | 2.53780 | 354 ft | 13 kts | 265° |
| 2026-05-05 11:44 | 49.01869 | 2.53623 | 355 ft | 16 kts | 251° |
| 2026-05-05 11:44 | 49.01839 | 2.53577 | 357 ft | 3 kts | 192° |
| 2026-05-05 11:45 | 49.01791 | 2.53551 | 359 ft | 12 kts | 223° |
| 2026-05-05 11:45 | 49.01769 | 2.53409 | 353 ft | 15 kts | 265° |
| 2026-05-05 11:45 | 49.01760 | 2.53231 | 353 ft | 17 kts | 264° |
| 2026-05-05 11:45 | 49.01750 | 2.53033 | 353 ft | 14 kts | 266° |
| 2026-05-05 11:46 | 49.01742 | 2.52925 | 360 ft | 2 kts | 249° |
| 2026-05-05 11:46 | 49.01729 | 2.52907 | 360 ft | 4 kts | 218° |
| 2026-05-05 11:46 | 49.01687 | 2.52857 | 353 ft | 12 kts | 221° |
| 2026-05-05 11:46 | 49.01672 | 2.52746 | 358 ft | 5 kts | 275° |
| 2026-05-05 11:47 | 49.01660 | 2.52698 | 354 ft | 5 kts | 227° |
| 2026-05-05 11:47 | 49.01625 | 2.52671 | 359 ft | 7 kts | 201° |
| 2026-05-05 11:47 | 49.01568 | 2.52617 | 359 ft | 11 kts | 228° |
| 2026-05-05 11:47 | 49.01541 | 2.52498 | 361 ft | 13 kts | 263° |
| 2026-05-05 11:48 | 49.01525 | 2.52207 | 353 ft | 15 kts | 265° |
| 2026-05-05 11:48 | 49.01516 | 2.52047 | 356 ft | 16 kts | 264° |
| 2026-05-05 11:48 | 49.01507 | 2.51879 | 357 ft | 16 kts | 266° |
| 2026-05-05 11:49 | 49.01499 | 2.51713 | 361 ft | 16 kts | 265° |
| 2026-05-05 11:49 | 49.01489 | 2.51541 | 355 ft | 16 kts | 264° |
| 2026-05-05 11:49 | 49.01480 | 2.51374 | 353 ft | 16 kts | 264° |
| 2026-05-05 11:49 | 49.01472 | 2.51213 | 353 ft | 15 kts | 265° |
| 2026-05-05 11:50 | 49.01464 | 2.51058 | 353 ft | 14 kts | 264° |
| 2026-05-05 11:50 | 49.01455 | 2.50910 | 360 ft | 14 kts | 265° |
| 2026-05-05 11:50 | 49.01448 | 2.50765 | 353 ft | 14 kts | 265° |
| 2026-05-05 11:50 | 49.01440 | 2.50619 | 357 ft | 14 kts | 265° |
| 2026-05-05 11:51 | 49.01432 | 2.50471 | 354 ft | 14 kts | 265° |
| 2026-05-05 11:51 | 49.01415 | 2.50401 | 355 ft | 3 kts | 225° |
| 2026-05-05 11:51 | 49.01376 | 2.50382 | 353 ft | 9 kts | 188° |
| 2026-05-05 11:51 | 49.01314 | 2.50388 | 352 ft | 9 kts | 175° |
| 2026-05-05 11:52 | 49.01263 | 2.50393 | 352 ft | 4 kts | 186° |
| 2026-05-05 11:52 | 49.01249 | 2.50379 | 352 ft | 2 kts | 226° |
| 2026-05-05 11:52 | 49.01241 | 2.50338 | 356 ft | 5 kts | 263° |
| 2026-05-05 11:52 | 49.01237 | 2.50275 | 358 ft | 3 kts | 264° |
| 2026-05-05 11:53 | 49.01236 | 2.50262 | 356 ft | 1 kts | 264° |
| 2026-05-05 11:53 | 49.01236 | 2.50255 | 355 ft | 0 kts | 264° |
| 2026-05-05 11:57 | 49.01238 | 2.50244 | 354 ft | 0 kts | 265° |